Time;durP1;ratioP1;P1;durP2;ratioP2;P2;SDS_P1;SDS_P2;PMS_P1;PMS_P2;Temp;Humidity;BMP_temperature;BMP_pressure;BME280_temperature;BME280_humidity;BME280_pressure;Samples;Min_cycle;Max_cycle;Signal;HPM_P1;HPM_P2
2021/06/09 00:00:10;;;;;;;8.05;5.70;;;;;;;16.41;61.11;100019.50;5118980;28;20054;-53
2021/06/09 00:02:56;;;;;;;10.43;5.97;;;;;;;16.35;61.50;100023.28;5118545;28;20130;-53
2021/06/09 00:05:22;;;;;;;12.32;6.65;;;;;;;16.34;61.81;100018.03;5118883;28;20151;-53
2021/06/09 00:07:48;;;;;;;17.98;9.80;;;;;;;16.32;61.91;100019.91;5119542;28;20408;-53
2021/06/09 00:10:13;;;;;;;13.75;7.88;;;;;;;16.28;62.49;100013.94;5118805;28;20052;-53
2021/06/09 00:12:39;;;;;;;14.40;9.02;;;;;;;16.25;62.68;100011.41;5117546;28;20442;-53
2021/06/09 00:15:10;;;;;;;15.10;8.32;;;;;;;16.23;62.97;100028.25;5118392;28;20073;-53
2021/06/09 00:17:36;;;;;;;12.05;7.68;;;;;;;16.18;62.96;100020.53;5118260;28;20059;-53
2021/06/09 00:20:05;;;;;;;14.63;7.60;;;;;;;16.17;62.86;100018.81;5117819;28;20343;-53
2021/06/09 00:22:31;;;;;;;10.65;7.20;;;;;;;16.12;62.72;100019.03;5118055;28;20057;-53
2021/06/09 00:24:56;;;;;;;13.23;8.13;;;;;;;16.10;62.63;100023.50;5118456;28;20043;-53
2021/06/09 00:27:22;;;;;;;13.02;7.18;;;;;;;16.07;63.19;100014.88;5118118;28;20039;-53
2021/06/09 00:29:48;;;;;;;11.70;6.65;;;;;;;16.05;63.41;100027.28;5118371;28;20047;-53
2021/06/09 00:32:14;;;;;;;9.70;6.47;;;;;;;16.02;63.26;100020.38;5118306;28;20424;-53
2021/06/09 00:34:40;;;;;;;7.47;5.30;;;;;;;16.02;63.69;100014.19;5118280;28;20329;-53
2021/06/09 00:37:06;;;;;;;11.05;5.32;;;;;;;16.02;63.62;100011.56;5118326;28;20051;-53
2021/06/09 00:39:32;;;;;;;7.20;4.63;;;;;;;16.01;63.75;100010.72;5118151;28;20059;-54
2021/06/09 00:41:57;;;;;;;9.50;5.13;;;;;;;16.01;63.65;100015.13;5117875;28;20100;-54
2021/06/09 00:44:23;;;;;;;10.93;6.00;;;;;;;15.99;63.37;100015.22;5118114;28;20051;-54
2021/06/09 00:46:49;;;;;;;9.75;5.65;;;;;;;15.98;63.39;100015.28;5100073;28;20054;-53
2021/06/09 00:49:15;;;;;;;6.43;4.63;;;;;;;15.95;63.48;100015.41;5117960;28;20493;-53
2021/06/09 00:51:41;;;;;;;13.73;5.20;;;;;;;15.93;63.57;100014.63;5117940;28;20047;-53
2021/06/09 00:54:07;;;;;;;9.88;5.70;;;;;;;15.89;63.60;100024.44;5117628;28;20062;-53
2021/06/09 00:56:34;;;;;;;29.42;11.93;;;;;;;15.80;64.41;100014.31;5118145;28;20114;-53
2021/06/09 00:59:00;;;;;;;18.65;10.40;;;;;;;15.76;64.09;100021.50;5117824;28;20451;-53
2021/06/09 01:01:27;;;;;;;18.30;8.55;;;;;;;15.73;64.33;100013.72;5117463;28;20072;-53
2021/06/09 01:03:53;;;;;;;16.83;8.60;;;;;;;15.70;64.26;100024.41;5116543;28;20421;-53
2021/06/09 01:06:19;;;;;;;15.32;8.27;;;;;;;15.69;63.65;100019.16;5117678;28;20065;-54
2021/06/09 01:08:45;;;;;;;14.88;7.93;;;;;;;15.67;63.93;100021.91;5117219;28;20531;-54
2021/06/09 01:11:16;;;;;;;12.98;8.43;;;;;;;15.64;63.80;100028.13;5117591;28;20047;-54
2021/06/09 01:13:42;;;;;;;13.70;7.50;;;;;;;15.61;64.32;100027.41;5117275;28;20048;-54
2021/06/09 01:16:07;;;;;;;11.48;6.88;;;;;;;15.56;64.41;100022.28;5117243;28;20043;-53
2021/06/09 01:18:34;;;;;;;13.32;6.07;;;;;;;15.53;64.13;100019.78;5099345;28;20039;-54
2021/06/09 01:21:00;;;;;;;7.88;5.47;;;;;;;15.52;64.31;100014.59;5117152;28;20035;-54
2021/06/09 01:23:27;;;;;;;8.35;5.30;;;;;;;15.51;64.68;100016.38;5099127;28;20052;-54
2021/06/09 01:25:53;;;;;;;11.52;5.57;;;;;;;15.49;64.37;100017.34;5116160;28;20039;-54
2021/06/09 01:28:19;;;;;;;11.38;6.25;;;;;;;15.49;64.38;100020.84;5116302;28;20039;-54
2021/06/09 01:30:45;;;;;;;12.40;6.80;;;;;;;15.47;64.35;100025.34;5116999;28;20356;-53
2021/06/09 01:33:11;;;;;;;9.63;6.47;;;;;;;15.43;64.78;100018.47;5116050;28;20062;-53
2021/06/09 01:35:37;;;;;;;11.35;7.22;;;;;;;15.46;64.55;100023.59;5117112;28;20047;-54
2021/06/09 01:38:03;;;;;;;10.48;6.10;;;;;;;15.44;64.93;100022.84;5116828;28;20064;-54
2021/06/09 01:40:29;;;;;;;8.70;6.00;;;;;;;15.43;64.63;100021.94;5116197;28;20066;-53
2021/06/09 01:42:56;;;;;;;8.05;5.57;;;;;;;15.42;65.07;100024.66;5116700;28;20048;-53
2021/06/09 01:45:23;;;;;;;9.05;5.30;;;;;;;15.41;65.18;100031.72;5116977;28;20047;-54
2021/06/09 01:47:53;;;;;;;10.23;5.45;;;;;;;15.41;64.73;100026.44;5116013;28;20050;-53
2021/06/09 01:50:19;;;;;;;7.82;5.15;;;;;;;15.38;65.32;100023.94;5099122;28;20058;-53
2021/06/09 01:52:48;;;;;;;6.05;4.95;;;;;;;15.37;65.15;100014.31;5116557;28;20056;-53
2021/06/09 01:55:14;;;;;;;8.18;5.07;;;;;;;15.38;65.55;100007.25;5117108;28;20134;-54
2021/06/09 01:57:40;;;;;;;11.05;6.22;;;;;;;15.35;65.34;100013.50;5116003;28;20066;-53
2021/06/09 02:00:10;;;;;;;9.55;5.63;;;;;;;15.34;65.90;100008.28;5116584;28;20420;-53
2021/06/09 02:02:38;;;;;;;8.68;6.05;;;;;;;15.30;65.78;100004.91;5116537;28;20100;-53
2021/06/09 02:05:06;;;;;;;7.70;5.90;;;;;;;15.32;65.82;100012.78;5116722;28;20055;-53
2021/06/09 02:07:39;;;;;;;7.85;5.63;;;;;;;15.29;65.76;100000.56;5116427;28;20044;-53
2021/06/09 02:10:08;;;;;;;6.40;4.53;;;;;;;15.25;65.80;100004.25;5116776;28;20039;-53
2021/06/09 02:12:34;;;;;;;6.97;5.45;;;;;;;15.20;65.84;100000.94;5116688;28;20063;-53
2021/06/09 02:15:00;;;;;;;5.53;4.75;;;;;;;15.24;65.52;100001.66;5098897;28;20047;-53
2021/06/09 02:17:26;;;;;;;7.32;4.57;;;;;;;15.22;65.40;99995.63;5115761;28;20043;-53
2021/06/09 02:19:51;;;;;;;7.70;4.90;;;;;;;15.25;65.32;100003.41;5115442;28;20454;-53
2021/06/09 02:22:17;;;;;;;6.50;4.88;;;;;;;15.27;65.49;99993.63;5098407;28;20055;-53
2021/06/09 02:24:43;;;;;;;9.75;5.05;;;;;;;15.23;66.53;99990.25;5116565;28;20044;-53
2021/06/09 02:27:09;;;;;;;8.25;5.32;;;;;;;15.28;66.13;99998.84;5098720;28;20044;-53
2021/06/09 02:29:35;;;;;;;9.18;5.43;;;;;;;15.27;66.76;99999.75;5116507;28;20051;-53
2021/06/09 02:32:00;;;;;;;8.13;5.47;;;;;;;15.25;67.09;99993.69;5115646;28;20050;-53
2021/06/09 02:34:26;;;;;;;8.35;5.20;;;;;;;15.25;66.83;99993.69;5098337;28;20047;-53
2021/06/09 02:36:54;;;;;;;10.68;5.43;;;;;;;15.24;67.14;99999.91;5116132;28;20139;-53
2021/06/09 02:39:20;;;;;;;7.95;4.88;;;;;;;15.22;66.72;100004.38;5116404;28;20048;-53
2021/06/09 02:41:46;;;;;;;7.40;4.40;;;;;;;15.22;66.78;100006.16;5116096;28;20356;-53
2021/06/09 02:44:12;;;;;;;9.32;5.00;;;;;;;15.22;66.98;100000.88;5120445;28;20112;-53
2021/06/09 02:46:48;;;;;;;9.80;5.15;;;;;;;15.20;66.56;100001.78;5119397;28;20308;-53
2021/06/09 02:49:16;;;;;;;11.05;6.40;;;;;;;15.18;66.90;99997.53;5102813;28;20079;-53
2021/06/09 02:51:56;;;;;;;10.63;6.18;;;;;;;15.18;66.93;100008.06;5119956;28;20064;-53
2021/06/09 02:54:37;;;;;;;7.30;5.10;;;;;;;15.15;67.00;100008.19;5119972;28;20048;-53
2021/06/09 02:57:13;;;;;;;8.80;5.40;;;;;;;15.16;67.29;100009.91;5119941;28;20039;-53
2021/06/09 03:00:03;;;;;;;8.20;4.75;;;;;;;15.12;67.24;100003.03;5119226;28;20420;-53
2021/06/09 03:03:07;;;;;;;8.65;4.60;;;;;;;15.11;66.93;99999.56;5119244;28;20047;-53
2021/06/09 03:05:56;;;;;;;7.40;4.85;;;;;;;15.09;67.26;99997.88;5118884;28;20329;-53
2021/06/09 03:08:35;;;;;;;8.10;4.88;;;;;;;15.10;66.93;100000.44;5119368;28;20040;-53
2021/06/09 03:11:04;;;;;;;10.48;5.05;;;;;;;15.11;66.72;99996.91;5103257;28;20040;-53
2021/06/09 03:14:17;;;;;;;11.68;5.20;;;;;;;15.11;66.75;100003.94;5118671;28;20494;-53
2021/06/09 03:16:49;;;;;;;10.90;5.88;;;;;;;15.10;66.73;100008.38;5119236;28;20109;-53
2021/06/09 03:19:21;;;;;;;10.02;6.55;;;;;;;15.09;66.82;100005.81;5118687;28;20105;-53
2021/06/09 03:21:50;;;;;;;7.93;5.43;;;;;;;15.09;66.73;100019.00;5119378;28;20073;-53
2021/06/09 03:24:28;;;;;;;8.15;5.63;;;;;;;15.14;66.78;100014.38;5118798;28;20047;-53
2021/06/09 03:26:57;;;;;;;8.07;5.05;;;;;;;15.16;66.78;100018.66;5119569;28;20062;-53
2021/06/09 03:29:46;;;;;;;8.43;5.45;;;;;;;15.18;66.82;100021.25;5119867;28;20035;-53
2021/06/09 03:32:21;;;;;;;14.80;5.72;;;;;;;15.20;66.96;100019.41;5118700;28;20109;-53
2021/06/09 03:34:57;;;;;;;9.18;5.95;;;;;;;15.25;66.80;100011.31;5118691;28;20063;-53
2021/06/09 03:37:23;;;;;;;7.55;6.10;;;;;;;15.31;66.64;100021.63;5085108;28;20444;-53
2021/06/09 03:39:51;;;;;;;9.63;6.80;;;;;;;15.37;66.96;100018.72;5118199;28;20058;-53
2021/06/09 03:42:18;;;;;;;9.05;7.30;;;;;;;15.44;66.95;100014.91;5118503;28;20055;-53
2021/06/09 03:44:47;;;;;;;9.68;7.28;;;;;;;15.52;67.22;100018.06;5118933;28;20102;-53
2021/06/09 03:47:13;;;;;;;13.13;7.07;;;;;;;15.52;67.41;100012.78;5118848;28;20440;-53
2021/06/09 03:49:39;;;;;;;8.25;6.53;;;;;;;15.60;67.11;100009.84;5118336;28;20059;-53
2021/06/09 03:52:05;;;;;;;11.55;7.07;;;;;;;15.68;67.10;100014.81;5101147;28;20051;-53
2021/06/09 03:54:32;;;;;;;11.45;6.57;;;;;;;15.76;67.23;100015.34;5118173;28;20047;-53
2021/06/09 03:56:59;;;;;;;10.32;6.65;;;;;;;15.88;67.35;100015.66;5084396;28;20063;-53
2021/06/09 03:59:25;;;;;;;11.10;7.22;;;;;;;16.00;67.29;100019.56;5118105;28;20122;-54
2021/06/09 04:01:52;;;;;;;10.32;6.82;;;;;;;16.10;67.24;100010.31;5084171;28;20375;-53
2021/06/09 04:04:20;;;;;;;8.32;5.78;;;;;;;16.28;66.81;100015.69;5118634;28;20057;-54
2021/06/09 04:06:45;;;;;;;8.77;5.88;;;;;;;16.43;67.11;100009.69;5118773;28;20086;-53
2021/06/09 04:09:13;;;;;;;5.60;4.88;;;;;;;16.93;66.95;100022.41;5101348;28;20040;-54
2021/06/09 04:11:39;;;;;;;6.10;4.80;;;;;;;17.44;66.08;100028.69;5117590;28;20440;-54
2021/06/09 04:14:05;;;;;;;6.35;4.43;;;;;;;17.97;65.11;100027.81;5118753;27;20071;-54
2021/06/09 04:16:31;;;;;;;5.32;4.80;;;;;;;18.41;63.59;100024.56;5117696;28;20184;-54
2021/06/09 04:18:57;;;;;;;7.63;4.90;;;;;;;18.87;62.88;100027.38;5117730;28;20055;-54
2021/06/09 04:21:26;;;;;;;5.82;5.20;;;;;;;19.28;61.18;100028.66;5100548;28;20047;-54
2021/06/09 04:23:52;;;;;;;5.18;4.65;;;;;;;19.59;59.64;100015.28;5117701;28;20047;-54
2021/06/09 04:26:17;;;;;;;6.68;5.00;;;;;;;20.02;59.01;100023.38;5117292;28;20051;-54
2021/06/09 04:28:43;;;;;;;6.82;5.22;;;;;;;20.40;58.05;100022.81;5117171;28;20118;-54
2021/06/09 04:31:12;;;;;;;7.05;4.97;;;;;;;20.74;56.81;100018.91;5118378;28;20058;-54
2021/06/09 04:33:38;;;;;;;7.57;4.95;;;;;;;21.08;56.22;100023.88;5118086;28;20039;-54
2021/06/09 04:36:05;;;;;;;7.60;4.88;;;;;;;21.47;55.28;100017.75;5118051;28;20132;-53
2021/06/09 04:38:31;;;;;;;4.85;4.20;;;;;;;21.85;54.29;100022.31;5117140;28;20047;-53
2021/06/09 04:40:56;;;;;;;4.78;4.15;;;;;;;22.04;53.67;100022.75;5083114;28;20047;-53
2021/06/09 04:43:23;;;;;;;5.60;4.32;;;;;;;21.93;53.04;100027.94;5118150;28;20047;-53
2021/06/09 04:45:49;;;;;;;6.78;4.50;;;;;;;21.68;52.09;100034.97;5118062;28;20055;-53
2021/06/09 04:48:15;;;;;;;9.20;5.20;;;;;;;21.37;52.32;100036.16;5117104;28;20479;-53
2021/06/09 04:50:43;;;;;;;4.60;4.10;;;;;;;21.30;52.40;100029.50;5083389;28;20043;-53
2021/06/09 04:53:11;;;;;;;4.55;4.10;;;;;;;21.23;52.79;100030.88;5117910;28;20069;-53
2021/06/09 04:55:41;;;;;;;5.28;4.78;;;;;;;21.35;52.63;100031.88;5117944;28;20047;-53
2021/06/09 04:58:07;;;;;;;7.13;4.65;;;;;;;21.68;52.35;100028.78;5117794;28;20054;-54
2021/06/09 05:00:33;;;;;;;6.53;4.53;;;;;;;22.04;51.35;100021.91;5116019;28;20487;-54
2021/06/09 05:02:59;;;;;;;6.80;4.65;;;;;;;22.35;51.09;100012.63;5115559;28;20108;-54
2021/06/09 05:05:25;;;;;;;5.10;4.00;;;;;;;22.85;50.29;100026.84;5115242;28;20104;-54
2021/06/09 05:07:51;;;;;;;4.32;3.22;;;;;;;23.26;50.17;100022.97;5115319;28;20048;-54
2021/06/09 05:10:16;;;;;;;6.32;4.00;;;;;;;23.51;49.57;100020.16;5116207;28;20046;-54
2021/06/09 05:13:00;;;;;;;5.72;3.72;;;;;;;23.86;47.86;100023.84;5117573;28;20062;-54
2021/06/09 05:15:27;;;;;;;4.15;3.53;;;;;;;24.30;48.21;100014.16;5099782;28;20329;-54
2021/06/09 05:17:53;;;;;;;4.20;3.80;;;;;;;24.75;46.93;100009.66;5117479;28;20051;-54
2021/06/09 05:20:25;;;;;;;5.75;4.13;;;;;;;25.07;45.31;100019.56;5117146;28;20346;-54
2021/06/09 05:22:56;;;;;;;6.45;5.07;;;;;;;25.36;45.10;100014.50;5116079;28;20051;-54
2021/06/09 05:25:22;;;;;;;3.85;3.40;;;;;;;25.41;45.30;100014.97;5117063;28;20131;-54
2021/06/09 05:27:47;;;;;;;10.40;4.00;;;;;;;25.72;43.81;100009.72;5099459;28;20050;-54
2021/06/09 05:30:15;;;;;;;3.60;3.30;;;;;;;25.82;43.37;100011.50;5115912;28;20440;-54
2021/06/09 05:32:41;;;;;;;9.30;3.30;;;;;;;26.10;42.98;100006.44;5116144;28;20390;-54
2021/06/09 05:35:07;;;;;;;6.88;3.50;;;;;;;26.22;42.73;100005.38;5099323;28;20044;-55
2021/06/09 05:37:33;;;;;;;6.45;3.75;;;;;;;26.32;42.58;100013.47;5117057;28;20055;-55
2021/06/09 05:40:00;;;;;;;3.78;3.25;;;;;;;26.29;41.88;100017.28;5116229;28;20051;-55
2021/06/09 05:42:25;;;;;;;3.30;3.00;;;;;;;26.13;42.86;100016.94;5117028;28;20044;-55
2021/06/09 05:44:54;;;;;;;4.93;3.67;;;;;;;25.82;42.69;100011.50;5099291;28;20048;-54
2021/06/09 05:47:21;;;;;;;5.95;3.50;;;;;;;25.81;43.26;100014.31;5117552;28;20067;-54
2021/06/09 05:49:48;;;;;;;5.55;3.38;;;;;;;25.94;43.68;100006.06;5116696;28;20093;-54
2021/06/09 05:52:13;;;;;;;6.07;3.38;;;;;;;26.00;44.15;100010.88;5116066;28;20066;-54
2021/06/09 05:54:41;;;;;;;5.65;4.00;;;;;;;25.96;43.36;100010.31;5116680;28;20039;-54
2021/06/09 05:57:08;;;;;;;6.25;4.50;;;;;;;26.11;42.51;100011.69;5116620;28;20086;-54
2021/06/09 05:59:35;;;;;;;6.45;3.80;;;;;;;26.37;43.11;100013.91;5116844;28;20207;-54
2021/06/09 06:02:01;;;;;;;5.63;4.15;;;;;;;26.76;42.14;100014.94;5116438;28;20508;-54
2021/06/09 06:04:26;;;;;;;4.88;3.97;;;;;;;26.96;41.58;100021.19;5115903;28;20085;-54
2021/06/09 06:06:52;;;;;;;5.13;3.67;;;;;;;27.13;40.69;100022.38;5116616;28;20044;-54
2021/06/09 06:09:18;;;;;;;8.60;4.28;;;;;;;27.22;40.04;100029.63;5115508;28;20050;-55
2021/06/09 06:11:45;;;;;;;4.32;3.58;;;;;;;27.20;39.76;100037.00;5115814;28;20048;-55
2021/06/09 06:14:11;;;;;;;5.63;4.13;;;;;;;27.39;39.51;100024.53;5096803;28;20047;-55
2021/06/09 06:16:38;;;;;;;4.57;4.18;;;;;;;27.40;39.67;100032.47;5114139;28;20127;-55
2021/06/09 06:19:04;;;;;;;5.47;3.90;;;;;;;27.43;39.01;100025.94;5120023;28;20043;-55
2021/06/09 06:21:30;;;;;;;5.13;4.13;;;;;;;27.42;39.86;100033.16;5120536;28;20069;-54
2021/06/09 06:23:56;;;;;;;6.88;3.92;;;;;;;27.63;39.48;100029.50;5121028;28;20040;-55
2021/06/09 06:26:22;;;;;;;5.03;3.42;;;;;;;27.47;39.92;100036.28;5120496;28;20047;-55
2021/06/09 06:28:49;;;;;;;4.90;3.58;;;;;;;27.27;39.68;100046.19;5120432;28;20424;-54
2021/06/09 06:31:25;;;;;;;5.35;4.13;;;;;;;26.88;40.21;100042.56;5120364;28;20071;-54
2021/06/09 06:33:54;;;;;;;5.18;3.97;;;;;;;26.58;40.55;100040.72;5120342;28;20055;-54
2021/06/09 06:36:22;;;;;;;4.53;4.07;;;;;;;26.52;41.29;100027.88;5118664;28;20066;-54
2021/06/09 06:38:48;;;;;;;7.10;4.53;;;;;;;26.76;40.97;100046.31;5118193;28;20089;-54
2021/06/09 06:41:14;;;;;;;6.47;4.57;;;;;;;26.76;40.69;100047.16;5118768;28;20047;-54
2021/06/09 06:43:40;;;;;;;4.95;4.25;;;;;;;26.65;40.55;100046.41;5118909;28;20132;-54
2021/06/09 06:46:06;;;;;;;7.55;3.70;;;;;;;26.48;41.48;100045.22;5119929;28;20051;-54
2021/06/09 06:48:35;;;;;;;6.22;3.67;;;;;;;26.31;41.73;100047.50;5120356;28;20052;-54
2021/06/09 06:51:01;;;;;;;8.88;4.70;;;;;;;26.15;41.59;100051.66;5119265;28;20035;-54
2021/06/09 06:53:26;;;;;;;5.13;3.90;;;;;;;25.97;42.03;100046.91;5085678;28;20447;-54
2021/06/09 06:55:52;;;;;;;5.35;3.78;;;;;;;26.03;42.36;100043.69;5119046;28;20459;-54
2021/06/09 06:58:18;;;;;;;5.93;4.25;;;;;;;26.42;42.78;100049.28;5119076;28;20039;-54
2021/06/09 07:00:44;;;;;;;5.43;3.55;;;;;;;26.85;42.37;100050.03;5119047;28;20047;-54
2021/06/09 07:03:10;;;;;;;5.38;3.63;;;;;;;27.01;41.77;100047.69;5119802;28;20138;-54
2021/06/09 07:05:35;;;;;;;5.88;3.35;;;;;;;27.14;41.68;100053.66;5119995;28;20046;-54
2021/06/09 07:08:02;;;;;;;5.68;3.97;;;;;;;27.36;41.47;100055.22;5102183;28;20048;-54
2021/06/09 07:10:28;;;;;;;4.38;3.03;;;;;;;27.49;41.14;100046.88;5119125;28;20051;-54
2021/06/09 07:12:54;;;;;;;5.63;3.65;;;;;;;27.49;41.08;100049.59;5119966;28;20062;-54
2021/06/09 07:15:20;;;;;;;5.65;3.70;;;;;;;27.41;41.44;100046.75;5119015;28;20428;-54
2021/06/09 07:17:48;;;;;;;4.90;3.53;;;;;;;27.44;41.12;100052.72;5118654;28;20039;-54
2021/06/09 07:20:14;;;;;;;5.63;3.28;;;;;;;27.74;40.08;100054.41;5118696;28;20036;-54
2021/06/09 07:22:40;;;;;;;7.97;3.78;;;;;;;27.99;38.34;100048.59;5119417;28;20048;-54
2021/06/09 07:25:07;;;;;;;4.88;3.88;;;;;;;28.20;38.14;100047.41;5118540;28;20047;-54
2021/06/09 07:27:36;;;;;;;5.65;3.92;;;;;;;28.25;38.76;100048.81;5118993;28;20098;-54
2021/06/09 07:30:06;;;;;;;4.88;3.47;;;;;;;28.50;38.97;100053.59;5119576;28;20062;-55
2021/06/09 07:32:34;;;;;;;4.40;3.00;;;;;;;28.86;38.66;100049.16;5117728;28;20058;-54
2021/06/09 07:34:59;;;;;;;7.18;3.63;;;;;;;28.98;37.45;100054.34;5099936;28;20051;-54
2021/06/09 07:37:25;;;;;;;7.93;3.55;;;;;;;28.95;36.04;100049.25;5117240;28;20040;-54
2021/06/09 07:39:57;;;;;;;4.28;3.42;;;;;;;28.72;37.03;100056.88;5099661;28;20081;-54
2021/06/09 07:42:23;;;;;;;5.03;3.63;;;;;;;28.61;37.25;100061.47;5100273;28;20047;-54
2021/06/09 07:44:58;;;;;;;6.50;3.10;;;;;;;28.72;37.25;100052.34;5099581;28;20159;-54
2021/06/09 07:47:25;;;;;;;3.00;2.80;;;;;;;28.74;37.61;100039.56;5116046;28;20051;-54
2021/06/09 07:49:51;;;;;;;5.72;3.13;;;;;;;28.86;36.45;100053.72;5116598;28;20435;-54
2021/06/09 07:52:17;;;;;;;4.82;3.15;;;;;;;29.21;35.99;100052.09;5101059;28;20435;-54
2021/06/09 07:54:43;;;;;;;9.30;3.70;;;;;;;29.57;35.92;100056.50;5084556;28;20043;-55
2021/06/09 07:57:10;;;;;;;6.35;3.88;;;;;;;29.96;36.17;100052.63;5118740;28;20040;-54
2021/06/09 07:59:36;;;;;;;4.65;3.38;;;;;;;30.30;34.61;100050.03;5119053;28;20117;-55
2021/06/09 08:02:02;;;;;;;4.82;2.97;;;;;;;30.57;33.74;100048.97;5117880;28;20355;-56
2021/06/09 08:04:28;;;;;;;3.80;3.42;;;;;;;30.81;33.51;100045.59;5118948;28;20397;-56
2021/06/09 08:06:54;;;;;;;4.32;2.90;;;;;;;31.02;33.66;100047.81;5101228;28;20046;-55
2021/06/09 08:09:21;;;;;;;5.75;2.95;;;;;;;31.26;33.42;100046.19;5117720;28;20043;-55
2021/06/09 08:11:46;;;;;;;8.93;3.30;;;;;;;31.53;33.36;100048.63;5118558;28;20054;-55
2021/06/09 08:14:15;;;;;;;6.05;2.53;;;;;;;31.77;33.26;100047.78;5119085;27;20054;-57
2021/06/09 08:16:41;;;;;;;3.60;3.22;;;;;;;31.99;32.55;100045.44;5118997;28;20043;-55
2021/06/09 08:19:07;;;;;;;3.45;3.13;;;;;;;31.88;31.58;100057.44;5117473;28;20096;-55
2021/06/09 08:21:33;;;;;;;6.38;3.28;;;;;;;31.78;32.57;100051.34;5118197;28;20085;-55
2021/06/09 08:23:59;;;;;;;5.65;3.40;;;;;;;31.81;31.75;100049.13;5118619;28;20062;-55
2021/06/09 08:26:26;;;;;;;4.13;2.97;;;;;;;31.85;32.76;100058.63;5119042;28;20075;-55
2021/06/09 08:28:52;;;;;;;5.05;3.92;;;;;;;31.81;31.68;100068.09;5100286;28;20049;-55
2021/06/09 08:31:23;;;;;;;5.25;3.53;;;;;;;31.76;31.98;100064.22;5118480;28;20335;-55
2021/06/09 08:33:50;;;;;;;5.68;4.28;;;;;;;31.66;31.23;100064.38;5118371;28;20348;-55
2021/06/09 08:36:16;;;;;;;7.18;3.80;;;;;;;31.41;30.87;100060.78;5117453;28;20071;-55
2021/06/09 08:38:42;;;;;;;8.35;2.97;;;;;;;31.38;30.73;100058.41;5118090;28;20108;-55
2021/06/09 08:41:09;;;;;;;6.75;3.20;;;;;;;31.30;31.94;100059.22;5117343;28;20046;-55
2021/06/09 08:43:35;;;;;;;7.95;3.50;;;;;;;31.39;31.37;100063.69;5118148;28;20047;-55
2021/06/09 08:46:03;;;;;;;4.97;3.22;;;;;;;31.27;30.44;100069.53;5118146;28;20124;-55
2021/06/09 08:48:29;;;;;;;6.30;3.17;;;;;;;31.17;30.88;100066.97;5118066;28;20122;-55
2021/06/09 08:50:55;;;;;;;4.03;3.13;;;;;;;31.10;31.90;100074.03;5117714;28;20427;-55
2021/06/09 08:53:22;;;;;;;3.20;2.50;;;;;;;31.28;31.79;100073.94;5116888;28;20374;-55
2021/06/09 08:55:48;;;;;;;4.47;3.50;;;;;;;31.29;30.69;100073.75;5117888;28;20130;-55
2021/06/09 08:58:14;;;;;;;3.30;2.85;;;;;;;31.24;31.48;100070.72;5117888;28;20075;-55
2021/06/09 09:00:41;;;;;;;7.72;2.83;;;;;;;31.18;31.32;100068.66;5116654;28;20059;-55
2021/06/09 09:03:07;;;;;;;6.10;3.30;;;;;;;31.23;31.43;100068.16;5116910;28;20348;-55
2021/06/09 09:05:33;;;;;;;3.70;2.70;;;;;;;31.29;30.67;100067.50;5117746;28;20108;-55
2021/06/09 09:08:00;;;;;;;4.07;2.75;;;;;;;31.15;30.50;100071.69;5117242;27;20348;-55
2021/06/09 09:10:26;;;;;;;4.30;2.40;;;;;;;30.88;29.74;100062.00;5117620;28;20054;-55
2021/06/09 09:12:52;;;;;;;5.53;3.08;;;;;;;30.67;30.80;100070.47;5117614;28;20048;-55
2021/06/09 09:15:18;;;;;;;5.32;2.63;;;;;;;30.79;29.53;100062.97;5116373;28;20052;-55
2021/06/09 09:17:54;;;;;;;5.20;2.90;;;;;;;30.91;30.76;100061.66;5116636;28;20040;-55
2021/06/09 09:20:22;;;;;;;8.30;4.18;;;;;;;30.89;30.75;100069.91;5117456;28;20101;-55
2021/06/09 09:22:48;;;;;;;3.17;2.88;;;;;;;30.82;29.82;100068.03;5117010;28;20217;-55
2021/06/09 09:25:15;;;;;;;6.30;2.78;;;;;;;30.73;30.46;100064.41;5099676;28;20070;-55
2021/06/09 09:28:31;;;;;;;10.15;4.60;;;;;;;30.53;30.71;100061.13;5117049;27;20061;-55
2021/06/09 09:31:11;;;;;;;5.75;2.58;;;;;;;30.57;28.72;100061.63;5089831;28;20108;-55
2021/06/09 09:33:37;;;;;;;2.15;1.77;;;;;;;30.51;27.75;100069.38;5116383;28;20048;-55
2021/06/09 09:36:19;;;;;;;3.13;1.48;;;;;;;30.52;28.37;100072.94;5116719;28;20054;-56
2021/06/09 09:38:45;;;;;;;;;;;;;;;30.26;27.17;100084.59;5117328;28;20473;-55
2021/06/09 09:41:13;;;;;;;7.05;1.60;;;;;;;30.33;27.92;100082.13;5116984;28;19920;-55
2021/06/09 09:43:49;;;;;;;7.63;2.22;;;;;;;30.41;27.47;100079.44;5116183;28;20047;-55
2021/06/09 09:46:32;;;;;;;2.67;1.73;;;;;;;30.44;27.22;100089.94;5115198;28;20040;-55
2021/06/09 09:49:01;;;;;;;4.35;2.10;;;;;;;30.47;27.44;100075.28;5116925;28;20046;-55
2021/06/09 09:51:29;;;;;;;12.57;5.40;;;;;;;30.52;27.43;100072.94;5116565;28;20042;-55
2021/06/09 09:54:00;;;;;;;6.88;2.15;;;;;;;30.57;27.75;100078.69;5114753;28;20448;-55
2021/06/09 09:56:29;;;;;;;5.47;2.55;;;;;;;30.56;26.89;100079.72;5116088;28;20047;-55
2021/06/09 09:59:05;;;;;;;11.57;4.50;;;;;;;30.59;27.12;100065.03;5116007;28;20055;-55
2021/06/09 10:01:42;;;;;;;14.32;5.90;;;;;;;30.70;28.07;100073.69;5116662;28;20036;-55
2021/06/09 10:04:08;;;;;;;5.32;2.90;;;;;;;30.79;28.35;100066.50;5116807;28;20347;-55
2021/06/09 10:06:47;;;;;;;8.18;4.22;;;;;;;30.85;27.65;100079.38;5115366;28;20051;-55
2021/06/09 10:09:14;;;;;;;10.00;3.55;;;;;;;30.94;26.76;100073.00;5116751;28;20054;-55
2021/06/09 10:11:53;;;;;;;2.38;1.33;;;;;;;30.86;27.32;100072.94;5116437;28;20459;-55
2021/06/09 10:14:20;;;;;;;2.03;1.40;;;;;;;30.79;26.45;100076.47;5116446;28;20039;-55
2021/06/09 10:16:51;;;;;;;2.97;1.50;;;;;;;30.81;26.78;100074.44;5098691;28;20046;-55
2021/06/09 10:19:18;;;;;;;13.45;4.53;;;;;;;30.87;26.97;100069.22;5116895;28;20123;-55
2021/06/09 10:21:57;;;;;;;5.45;2.63;;;;;;;30.92;27.15;100075.00;5116182;28;20060;-55
2021/06/09 10:24:24;;;;;;;3.75;2.13;;;;;;;30.96;27.04;100073.66;5116584;28;20047;-55
2021/06/09 10:27:02;;;;;;;8.40;3.92;;;;;;;31.00;25.61;100068.75;5116554;28;20047;-55
2021/06/09 10:29:29;;;;;;;10.50;4.55;;;;;;;30.87;25.45;100071.94;5116582;28;20130;-55
2021/06/09 10:32:00;;;;;;;6.18;2.72;;;;;;;30.91;26.62;100067.06;5116496;28;20051;-55
2021/06/09 10:34:27;;;;;;;2.45;0.98;;;;;;;31.07;25.78;100069.81;5116860;28;20435;-55
2021/06/09 10:36:54;;;;;;;5.32;1.63;;;;;;;31.04;25.16;100070.16;5116143;28;20070;-55
2021/06/09 10:39:22;;;;;;;4.10;1.30;;;;;;;30.96;23.62;100070.13;5116469;28;20039;-55
2021/06/09 10:41:50;;;;;;;3.95;1.30;;;;;;;31.02;23.57;100076.72;5116683;28;20036;-55
2021/06/09 10:44:19;;;;;;;2.25;0.82;;;;;;;31.10;24.01;100071.34;5116432;28;20040;-55
2021/06/09 10:46:47;;;;;;;0.88;0.47;;;;;;;31.08;24.83;100067.97;5115273;28;20044;-55
2021/06/09 10:49:17;;;;;;;4.30;0.77;;;;;;;31.15;24.31;100069.00;5116361;28;20035;-54
2021/06/09 10:51:47;;;;;;;3.25;1.35;;;;;;;31.29;24.19;100075.59;5116394;28;20047;-55
2021/06/09 10:54:15;;;;;;;4.35;1.73;;;;;;;31.27;24.58;100072.25;5116057;28;20063;-55
2021/06/09 10:56:43;;;;;;;8.93;3.53;;;;;;;31.27;25.13;100066.84;5116320;28;20047;-55
2021/06/09 10:59:14;;;;;;;6.97;2.25;;;;;;;31.32;23.47;100061.75;5116323;28;20119;-55
2021/06/09 11:01:40;;;;;;;10.45;2.47;;;;;;;31.18;22.61;100057.84;5116054;28;20432;-54
2021/06/09 11:04:06;;;;;;;4.05;2.13;;;;;;;31.07;22.54;100059.00;5119208;28;20085;-55
2021/06/09 11:06:40;;;;;;;2.35;1.33;;;;;;;31.08;23.20;100051.75;5119027;28;20087;-50
2021/06/09 11:09:19;;;;;;;1.35;0.80;;;;;;;31.26;24.83;100051.59;5119903;28;20042;-50
2021/06/09 11:12:07;;;;;;;2.72;0.77;;;;;;;31.48;24.31;100050.16;5119859;28;20055;-50
2021/06/09 11:14:33;;;;;;;0.88;0.57;;;;;;;31.47;24.10;100043.91;5098837;28;20379;-50
2021/06/09 11:16:58;;;;;;;1.42;0.77;;;;;;;31.57;23.38;100051.84;5102262;28;20051;-55
2021/06/09 11:19:50;;;;;;;1.35;0.40;;;;;;;31.48;21.66;100048.28;5119675;28;20044;-55
2021/06/09 11:22:23;;;;;;;;;;;;;;;31.32;22.97;100050.94;5116146;28;20059;-55
2021/06/09 11:25:18;;;;;;;2.85;0.90;;;;;;;31.50;22.92;100045.41;5119777;28;19919;-55
2021/06/09 11:27:58;;;;;;;0.52;0.52;;;;;;;31.68;22.87;100040.69;5119467;28;20044;-55
2021/06/09 11:30:24;;;;;;;11.15;1.35;;;;;;;31.73;22.12;100045.59;5119924;28;20129;-55